Time;durP1;ratioP1;P1;durP2;ratioP2;P2;SDS_P1;SDS_P2;PMS_P1;PMS_P2;Temp;Humidity;BMP_temperature;BMP_pressure;BME280_temperature;BME280_humidity;BME280_pressure;Samples;Min_cycle;Max_cycle;Signal;HPM_P1;HPM_P2
2023/04/29 00:01:47;;;;;;;17.25;6.30;;;;;;;;;;4950425;28;20062;-59
2023/04/29 00:04:12;;;;;;;16.20;6.80;;;;;;;;;;4952918;28;20103;-58
2023/04/29 00:06:38;;;;;;;10.00;5.68;;;;;;;;;;4952793;28;20047;-57
2023/04/29 00:09:03;;;;;;;8.70;6.05;;;;;;;;;;4951456;28;20030;-56
2023/04/29 00:11:28;;;;;;;11.15;6.00;;;;;;;;;;4950068;28;20035;-55
2023/04/29 00:13:54;;;;;;;9.38;6.38;;;;;;;;;;4951390;28;20039;-58
2023/04/29 00:16:19;;;;;;;9.38;5.85;;;;;;;;;;4949099;28;20031;-54
2023/04/29 00:18:44;;;;;;;8.65;6.00;;;;;;;;;;4952655;28;20057;-58
2023/04/29 00:21:10;;;;;;;10.13;5.72;;;;;;;;;;4953045;28;20651;-55
2023/04/29 00:23:35;;;;;;;8.95;5.80;;;;;;;;;;4953028;28;20064;-61
2023/04/29 00:26:01;;;;;;;10.10;5.28;;;;;;;;;;4946116;28;20541;-58
2023/04/29 00:28:26;;;;;;;13.20;7.10;;;;;;;;;;4951028;28;20034;-57
2023/04/29 00:30:52;;;;;;;12.68;7.00;;;;;;;;;;4943883;28;20102;-54
2023/04/29 00:33:17;;;;;;;13.35;7.18;;;;;;;;;;4948787;28;20380;-57
2023/04/29 00:35:42;;;;;;;13.60;6.60;;;;;;;;;;4954103;28;20027;-57
2023/04/29 00:38:08;;;;;;;28.98;9.20;;;;;;;;;;4951098;28;20039;-57
2023/04/29 00:40:35;;;;;;;14.70;8.75;;;;;;;;;;4950908;28;20031;-54
2023/04/29 00:43:00;;;;;;;13.18;7.18;;;;;;;;;;4948562;28;20035;-57
2023/04/29 00:45:26;;;;;;;14.57;7.75;;;;;;;;;;4944956;28;20058;-58
2023/04/29 00:47:51;;;;;;;12.05;6.50;;;;;;;;;;4949284;28;20055;-59
2023/04/29 00:50:17;;;;;;;12.70;7.15;;;;;;;;;;4947408;28;20237;-55
2023/04/29 00:52:43;;;;;;;12.13;7.28;;;;;;;;;;4948662;28;20587;-53
2023/04/29 00:55:10;;;;;;;14.23;6.70;;;;;;;;;;4942360;28;20085;-56
2023/04/29 00:57:35;;;;;;;10.35;6.00;;;;;;;;;;4953166;28;20473;-58
2023/04/29 01:00:01;;;;;;;11.20;5.95;;;;;;;;;;4948038;28;20023;-56
2023/04/29 01:02:27;;;;;;;9.98;5.47;;;;;;;;;;4953529;28;20038;-57
2023/04/29 01:04:52;;;;;;;11.40;6.03;;;;;;;;;;4951331;28;20047;-61
2023/04/29 01:07:22;;;;;;;9.57;5.55;;;;;;;;;;4952220;28;20111;-52
2023/04/29 01:09:53;;;;;;;9.43;5.78;;;;;;;;;;4947638;28;20588;-56
2023/04/29 01:12:30;;;;;;;9.93;5.32;;;;;;;;;;4946756;28;20047;-57
2023/04/29 01:15:03;;;;;;;7.53;5.18;;;;;;;;;;4951536;28;20396;-58
2023/04/29 01:17:31;;;;;;;10.15;5.53;;;;;;;;;;4948386;28;20069;-55
2023/04/29 01:19:57;;;;;;;7.35;4.50;;;;;;;;;;4953056;28;20042;-54
2023/04/29 01:22:23;;;;;;;6.38;4.10;;;;;;;;;;4935771;28;20039;-57
2023/04/29 01:24:48;;;;;;;8.02;4.82;;;;;;;;;;4967305;28;20043;-56
2023/04/29 01:27:28;;;;;;;6.25;4.68;;;;;;;;;;4962520;28;20154;-55
2023/04/29 01:30:06;;;;;;;9.05;5.80;;;;;;;;;;4960382;28;20086;-60
2023/04/29 01:32:51;;;;;;;8.93;5.65;;;;;;;;;;4947420;28;20035;-57
2023/04/29 01:35:16;;;;;;;7.80;4.80;;;;;;;;;;4955615;28;20051;-58
2023/04/29 01:37:51;;;;;;;6.65;4.25;;;;;;;;;;4952833;28;20347;-57
2023/04/29 01:40:19;;;;;;;6.15;3.95;;;;;;;;;;4950311;28;20393;-57
2023/04/29 01:43:10;;;;;;;6.55;3.38;;;;;;;;;;4951878;28;20438;-60
2023/04/29 01:45:37;;;;;;;5.07;3.28;;;;;;;;;;4947015;28;20031;-56
2023/04/29 01:48:03;;;;;;;5.43;3.20;;;;;;;;;;4948910;28;20386;-61
2023/04/29 01:50:29;;;;;;;5.38;3.25;;;;;;;;;;4972294;28;20043;-58
2023/04/29 01:53:02;;;;;;;6.93;4.00;;;;;;;;;;4936817;28;20035;-56
2023/04/29 01:55:27;;;;;;;5.85;3.65;;;;;;;;;;4950367;28;20404;-55
2023/04/29 01:58:22;;;;;;;6.43;4.10;;;;;;;;;;4942486;28;20038;-55
2023/04/29 02:01:00;;;;;;;5.65;3.85;;;;;;;;;;4954432;28;20034;-58
2023/04/29 02:03:29;;;;;;;5.28;3.85;;;;;;;;;;4956399;28;20051;-59
2023/04/29 02:05:56;;;;;;;5.60;3.92;;;;;;;;;;4946059;28;20473;-59
2023/04/29 02:08:22;;;;;;;4.75;3.60;;;;;;;;;;4963854;28;20086;-58
2023/04/29 02:10:54;;;;;;;5.75;3.60;;;;;;;;;;4967120;28;20039;-55
2023/04/29 02:13:33;;;;;;;6.60;4.07;;;;;;;;;;4961352;28;20043;-59
2023/04/29 02:16:06;;;;;;;7.22;4.45;;;;;;;;;;4949606;28;20031;-56
2023/04/29 02:18:31;;;;;;;6.57;4.50;;;;;;;;;;4950883;28;20039;-55
2023/04/29 02:21:00;;;;;;;12.57;5.22;;;;;;;;;;4948708;28;20031;-57
2023/04/29 02:23:26;;;;;;;7.15;4.40;;;;;;;;;;4949237;28;20035;-57
2023/04/29 02:25:51;;;;;;;7.18;4.10;;;;;;;;;;4950913;28;20690;-57
2023/04/29 02:28:17;;;;;;;6.68;4.10;;;;;;;;;;4947186;28;20469;-55
2023/04/29 02:30:42;;;;;;;6.68;3.83;;;;;;;;;;4962500;28;20070;-57
2023/04/29 02:33:07;;;;;;;6.38;4.40;;;;;;;;;;4951955;28;20030;-56
2023/04/29 02:35:34;;;;;;;6.00;4.32;;;;;;;;;;4947792;28;20061;-57
2023/04/29 02:37:59;;;;;;;8.05;4.22;;;;;;;;;;4944751;28;20524;-58
2023/04/29 02:40:25;;;;;;;6.90;4.15;;;;;;;;;;4949168;28;20039;-57
2023/04/29 02:42:51;;;;;;;6.85;4.18;;;;;;;;;;4950122;28;20542;-57
2023/04/29 02:45:16;;;;;;;9.85;4.50;;;;;;;;;;4946722;28;20059;-56
2023/04/29 02:47:43;;;;;;;9.60;5.20;;;;;;;;;;4944472;28;20047;-54
2023/04/29 02:50:08;;;;;;;11.35;5.00;;;;;;;;;;4945651;28;20416;-55
2023/04/29 02:52:34;;;;;;;7.25;4.95;;;;;;;;;;4945912;28;20740;-56
2023/04/29 02:54:59;;;;;;;7.05;4.60;;;;;;;;;;4947709;28;20377;-57
2023/04/29 02:57:24;;;;;;;8.18;4.50;;;;;;;;;;4946437;28;21039;-57
2023/04/29 02:59:50;;;;;;;6.38;4.20;;;;;;;;;;4950622;28;21276;-56
2023/04/29 03:02:16;;;;;;;7.65;4.82;;;;;;;;;;4948927;28;20078;-56
2023/04/29 03:04:43;;;;;;;10.55;5.00;;;;;;;;;;4948522;28;20043;-53
2023/04/29 03:07:09;;;;;;;6.97;4.75;;;;;;;;;;4950240;28;20042;-55
2023/04/29 03:09:35;;;;;;;7.87;4.70;;;;;;;;;;4944033;28;20031;-58
2023/04/29 03:12:01;;;;;;;7.68;4.88;;;;;;;;;;4951653;28;20031;-55
2023/04/29 03:14:27;;;;;;;8.15;5.30;;;;;;;;;;4951158;28;20031;-56
2023/04/29 03:16:52;;;;;;;8.23;4.90;;;;;;;;;;4950189;28;20043;-57
2023/04/29 03:19:18;;;;;;;11.00;5.63;;;;;;;;;;4949880;28;20031;-58
2023/04/29 03:21:44;;;;;;;12.07;5.45;;;;;;;;;;4947039;28;21180;-56
2023/04/29 03:24:09;;;;;;;11.43;6.63;;;;;;;;;;4961881;28;20686;-58
2023/04/29 03:26:35;;;;;;;12.25;5.95;;;;;;;;;;4966190;28;20651;-50
2023/04/29 03:29:02;;;;;;;10.20;5.60;;;;;;;;;;4950003;28;20046;-55
2023/04/29 03:31:28;;;;;;;10.52;5.75;;;;;;;;;;4967227;28;20038;-55
2023/04/29 03:33:53;;;;;;;9.60;5.38;;;;;;;;;;4948894;28;20179;-54
2023/04/29 03:36:20;;;;;;;10.02;5.75;;;;;;;;;;4946454;28;20146;-52
2023/04/29 03:38:55;;;;;;;21.38;6.18;;;;;;;;;;4931487;28;20039;-56
2023/04/29 03:41:22;;;;;;;11.10;6.03;;;;;;;;;;4963152;28;20031;-54
2023/04/29 03:43:47;;;;;;;10.43;4.90;;;;;;;;;;4947462;28;20051;-55
2023/04/29 03:46:12;;;;;;;8.32;4.88;;;;;;;;;;4944402;28;20027;-57
2023/04/29 03:48:38;;;;;;;11.85;6.32;;;;;;;;;;4950902;28;20122;-55
2023/04/29 03:51:03;;;;;;;9.23;5.38;;;;;;;;;;4947240;28;20093;-57
2023/04/29 03:53:29;;;;;;;9.25;5.72;;;;;;;;;;4947716;28;20039;-54
2023/04/29 03:55:55;;;;;;;8.38;5.50;;;;;;;;;;4963714;28;20502;-53
2023/04/29 03:58:20;;;;;;;10.43;6.18;;;;;;;;;;4927231;28;20034;-53
2023/04/29 04:00:46;;;;;;;12.63;7.22;;;;;;;;;;4947944;28;20043;-60
2023/04/29 04:03:17;;;;;;;16.90;9.52;;;;;;;;;;4949741;28;20669;-58
2023/04/29 04:05:42;;;;;;;19.23;10.38;;;;;;;;;;4947902;28;20027;-53
2023/04/29 04:08:11;;;;;;;24.20;11.05;;;;;;;;;;4948778;28;20058;-56
2023/04/29 04:10:48;;;;;;;43.10;17.90;;;;;;;;;;4947166;28;20473;-55
2023/04/29 04:13:32;;;;;;;32.60;16.42;;;;;;;;;;4949959;28;20086;-53
2023/04/29 04:15:58;;;;;;;26.63;9.07;;;;;;;;;;4963349;28;20039;-57
2023/04/29 04:18:23;;;;;;;16.77;7.75;;;;;;;;;;4946130;28;20039;-53
2023/04/29 04:20:49;;;;;;;12.75;7.55;;;;;;;;;;4948534;28;20410;-55
2023/04/29 04:23:14;;;;;;;17.42;7.20;;;;;;;;;;4948603;28;20086;-56
2023/04/29 04:25:49;;;;;;;10.65;6.70;;;;;;;;;;4943994;28;20031;-58
2023/04/29 04:28:40;;;;;;;11.40;6.70;;;;;;;;;;4949269;28;20031;-55
2023/04/29 04:31:10;;;;;;;13.35;7.38;;;;;;;;;;4964009;28;20027;-57
2023/04/29 04:33:35;;;;;;;13.57;7.63;;;;;;;;;;4943672;28;20043;-59
2023/04/29 04:36:01;;;;;;;12.73;7.15;;;;;;;;;;4965809;28;20023;-53
2023/04/29 04:38:27;;;;;;;11.07;7.43;;;;;;;;;;4928529;28;20035;-59
2023/04/29 04:40:53;;;;;;;10.43;7.10;;;;;;;;;;4950775;28;20031;-59
2023/04/29 04:43:30;;;;;;;10.18;7.40;;;;;;;;;;4963266;28;20310;-59
2023/04/29 04:45:56;;;;;;;12.27;7.03;;;;;;;;;;4947615;28;20106;-55
2023/04/29 04:48:21;;;;;;;11.43;8.55;;;;;;;;;;4946116;28;20041;-55
2023/04/29 04:50:49;;;;;;;;;;;;;;;;;;4945259;28;20031;-56
2023/04/29 04:53:14;;;;;;;9.35;7.32;;;;;;;;;;4956800;28;19970;-58
2023/04/29 04:55:53;;;;;;;11.35;7.47;;;;;;;;;;4962491;28;20035;-56
2023/04/29 04:58:19;;;;;;;9.35;7.07;;;;;;;;;;4962391;28;20509;-51
2023/04/29 05:00:44;;;;;;;9.00;6.30;;;;;;;;;;4947268;28;20037;-58
2023/04/29 05:03:10;;;;;;;8.98;6.07;;;;;;;;;;4961369;28;20054;-56
2023/04/29 05:05:36;;;;;;;11.43;7.28;;;;;;;;;;4948780;28;20813;-59
2023/04/29 05:08:01;;;;;;;10.13;6.90;;;;;;;;;;4934552;28;20496;-57
2023/04/29 05:10:36;;;;;;;10.20;6.85;;;;;;;;;;4942361;28;20486;-58
2023/04/29 05:13:01;;;;;;;11.02;6.70;;;;;;;;;;4937885;28;20058;-58
2023/04/29 05:15:27;;;;;;;9.50;5.93;;;;;;;;;;4940855;28;20093;-57
2023/04/29 05:17:54;;;;;;;9.32;5.60;;;;;;;;;;4948253;28;20038;-58
2023/04/29 05:20:20;;;;;;;7.15;5.47;;;;;;;;;;4947320;28;20385;-55
2023/04/29 05:22:45;;;;;;;6.60;4.90;;;;;;;;;;4951550;28;20035;-55
2023/04/29 05:25:12;;;;;;;9.45;6.47;;;;;;;;;;4948098;28;20042;-56
2023/04/29 05:27:38;;;;;;;20.73;11.07;;;;;;;;;;4946282;28;20054;-57
2023/04/29 05:30:07;;;;;;;26.58;14.65;;;;;;;;;;4941231;28;20039;-57
2023/04/29 05:32:33;;;;;;;29.45;16.30;;;;;;;;;;4952153;28;20386;-56
2023/04/29 05:34:58;;;;;;;23.60;13.98;;;;;;;;;;4947229;28;20397;-54
2023/04/29 05:37:29;;;;;;;12.77;8.68;;;;;;;;;;4930415;28;20034;-57
2023/04/29 05:40:07;;;;;;;12.85;9.05;;;;;;;;;;4945246;28;20476;-56
2023/04/29 05:42:33;;;;;;;11.93;8.45;;;;;;;;;;4957006;28;20522;-52
2023/04/29 05:44:59;;;;;;;36.07;12.57;;;;;;;;;;4944582;28;20098;-58
2023/04/29 05:47:24;;;;;;;24.75;9.07;;;;;;;;;;4949783;28;20043;-57
2023/04/29 05:49:50;;;;;;;15.43;8.23;;;;;;;;;;4947084;28;20039;-58
2023/04/29 05:52:15;;;;;;;14.60;8.27;;;;;;;;;;4946771;28;20032;-57
2023/04/29 05:54:44;;;;;;;11.90;8.00;;;;;;;;;;4957495;28;20035;-57
2023/04/29 05:57:10;;;;;;;10.80;8.02;;;;;;;;;;4942444;28;20035;-58
2023/04/29 05:59:36;;;;;;;11.75;8.00;;;;;;;;;;4951425;28;20424;-59
2023/04/29 06:02:03;;;;;;;8.27;6.68;;;;;;;;;;4962422;28;20027;-54
2023/04/29 06:04:31;;;;;;;13.15;7.72;;;;;;;;;;4947661;28;20051;-54
2023/04/29 06:07:17;;;;;;;11.00;8.15;;;;;;;;;;4937475;28;20114;-58
2023/04/29 06:09:54;;;;;;;12.25;7.78;;;;;;;;;;4950744;28;20388;-52
2023/04/29 06:12:20;;;;;;;8.82;6.80;;;;;;;;;;4944484;28;20039;-58
2023/04/29 06:14:46;;;;;;;10.82;7.72;;;;;;;;;;4947585;28;20066;-58
2023/04/29 06:17:12;;;;;;;11.35;7.47;;;;;;;;;;4945503;28;20038;-53
2023/04/29 06:19:37;;;;;;;7.35;6.22;;;;;;;;;;4948020;28;20677;-56
2023/04/29 06:22:02;;;;;;;11.30;7.50;;;;;;;;;;4946836;28;20031;-59
2023/04/29 06:24:28;;;;;;;9.77;6.65;;;;;;;;;;4947406;28;20046;-55
2023/04/29 06:26:55;;;;;;;8.05;6.43;;;;;;;;;;4950642;28;20027;-53
2023/04/29 06:29:21;;;;;;;9.43;6.65;;;;;;;;;;4953108;28;20038;-56
2023/04/29 06:31:46;;;;;;;9.85;7.18;;;;;;;;;;4965096;28;20035;-56
2023/04/29 06:34:12;;;;;;;9.60;6.80;;;;;;;;;;4945679;28;20058;-53
2023/04/29 06:36:47;;;;;;;9.13;7.20;;;;;;;;;;4966020;28;20474;-59
2023/04/29 06:39:45;;;;;;;6.80;5.75;;;;;;;;;;4964133;28;20063;-56
2023/04/29 06:42:22;;;;;;;8.38;6.85;;;;;;;;;;4952920;28;20039;-57
2023/04/29 06:45:07;;;;;;;10.98;6.55;;;;;;;;;;4953985;28;20125;-57
2023/04/29 06:47:39;;;;;;;9.60;6.82;;;;;;;;;;4944179;28;20114;-57
2023/04/29 06:50:23;;;;;;;7.53;6.35;;;;;;;;;;4949577;28;20030;-56
2023/04/29 06:52:48;;;;;;;9.00;7.22;;;;;;;;;;4953345;28;20086;-54
2023/04/29 06:55:13;;;;;;;8.23;6.68;;;;;;;;;;4951689;28;20035;-54
2023/04/29 06:57:40;;;;;;;;;;;;;;;;;;4952641;28;20027;-57
2023/04/29 07:00:06;;;;;;;10.07;8.93;;;;;;;;;;4954137;28;19917;-53
2023/04/29 07:02:32;;;;;;;10.35;7.78;;;;;;;;;;4954748;28;20157;-54
2023/04/29 07:04:58;;;;;;;12.70;7.40;;;;;;;;;;4953336;28;20038;-57
2023/04/29 07:07:24;;;;;;;10.45;6.95;;;;;;;;;;4954185;28;20041;-57
2023/04/29 07:09:51;;;;;;;8.63;6.65;;;;;;;;;;4953336;28;20056;-57
2023/04/29 07:12:16;;;;;;;;;;;;;;;;;;4951102;28;20042;-55
2023/04/29 07:14:42;;;;;;;8.15;6.78;;;;;;;;;;4952673;28;19914;-54
2023/04/29 07:17:07;;;;;;;8.40;7.18;;;;;;;;;;4949942;28;20031;-58
2023/04/29 07:19:33;;;;;;;10.57;6.75;;;;;;;;;;4953118;28;20502;-53
2023/04/29 07:21:58;;;;;;;10.10;7.78;;;;;;;;;;4966781;28;20058;-61
2023/04/29 07:24:24;;;;;;;8.23;7.05;;;;;;;;;;4964045;28;20043;-54
2023/04/29 07:26:49;;;;;;;8.82;6.47;;;;;;;;;;4962675;28;20114;-57
2023/04/29 07:29:15;;;;;;;7.47;6.35;;;;;;;;;;4954787;28;20115;-56
2023/04/29 07:31:41;;;;;;;7.97;6.22;;;;;;;;;;4949929;28;20033;-49
2023/04/29 07:34:06;;;;;;;8.18;5.85;;;;;;;;;;4949966;28;20027;-58
2023/04/29 07:36:32;;;;;;;8.13;4.95;;;;;;;;;;4948860;28;20039;-56
2023/04/29 07:38:58;;;;;;;7.45;5.30;;;;;;;;;;4945562;28;20086;-53
2023/04/29 07:41:24;;;;;;;7.65;5.40;;;;;;;;;;4938106;28;20077;-58
2023/04/29 07:43:49;;;;;;;8.50;5.95;;;;;;;;;;4951624;28;20055;-51
2023/04/29 07:46:17;;;;;;;9.90;5.80;;;;;;;;;;4947098;28;20696;-55
2023/04/29 07:48:42;;;;;;;8.52;5.30;;;;;;;;;;4946239;28;20029;-54
2023/04/29 07:51:12;;;;;;;6.90;4.65;;;;;;;;;;4965326;28;20431;-57
2023/04/29 07:53:37;;;;;;;7.35;4.70;;;;;;;;;;4952606;28;20035;-53
2023/04/29 07:56:06;;;;;;;5.55;4.38;;;;;;;;;;4950689;28;20078;-57
2023/04/29 07:58:32;;;;;;;4.75;3.72;;;;;;;;;;4949957;28;20031;-57
2023/04/29 08:01:04;;;;;;;5.90;4.03;;;;;;;;;;4948003;28;20059;-52
2023/04/29 08:03:30;;;;;;;7.18;3.80;;;;;;;;;;4949408;28;20050;-52
2023/04/29 08:05:59;;;;;;;5.20;3.83;;;;;;;;;;4953099;28;20030;-51
2023/04/29 08:08:24;;;;;;;6.13;3.83;;;;;;;;;;4965884;28;20038;-58
2023/04/29 08:10:50;;;;;;;4.90;3.60;;;;;;;;;;4949414;28;20029;-57
2023/04/29 08:13:15;;;;;;;5.80;4.00;;;;;;;;;;4964342;28;20031;-57
2023/04/29 08:15:41;;;;;;;5.50;3.20;;;;;;;;;;4951382;28;20126;-56
2023/04/29 08:18:06;;;;;;;5.30;3.40;;;;;;;;;;4954010;28;20035;-51
2023/04/29 08:20:31;;;;;;;4.45;3.30;;;;;;;;;;4953267;28;20111;-53
2023/04/29 08:22:57;;;;;;;5.32;3.45;;;;;;;;;;4953880;28;20113;-56
2023/04/29 08:25:22;;;;;;;5.00;3.60;;;;;;;;;;4951781;28;20412;-59
2023/04/29 08:27:48;;;;;;;7.72;3.50;;;;;;;;;;4951163;28;20145;-55
2023/04/29 08:30:13;;;;;;;5.78;3.10;;;;;;;;;;4960838;28;20113;-55
2023/04/29 08:32:38;;;;;;;4.30;3.38;;;;;;;;;;4955339;28;20778;-57
2023/04/29 08:35:04;;;;;;;5.63;3.40;;;;;;;;;;4949307;28;20551;-55
2023/04/29 08:37:29;;;;;;;7.47;3.95;;;;;;;;;;4953663;28;20043;-58
2023/04/29 08:39:54;;;;;;;4.65;3.40;;;;;;;;;;4951924;28;20477;-58
2023/04/29 08:42:28;;;;;;;6.00;3.60;;;;;;;;;;4954846;28;20110;-57
2023/04/29 08:44:53;;;;;;;5.35;3.05;;;;;;;;;;4954768;28;20035;-52
2023/04/29 08:47:19;;;;;;;4.40;3.30;;;;;;;;;;4954110;28;20030;-57
2023/04/29 08:49:44;;;;;;;6.70;3.80;;;;;;;;;;4954235;28;20043;-57
2023/04/29 08:52:10;;;;;;;6.57;3.63;;;;;;;;;;4969148;28;20178;-57
2023/04/29 08:54:35;;;;;;;6.22;4.03;;;;;;;;;;4951217;28;20031;-54
2023/04/29 08:57:01;;;;;;;7.53;3.60;;;;;;;;;;4951390;28;20555;-58
2023/04/29 08:59:27;;;;;;;7.35;3.13;;;;;;;;;;4952868;28;20050;-57
2023/04/29 09:01:52;;;;;;;4.97;3.25;;;;;;;;;;4953575;28;20039;-56
2023/04/29 09:04:28;;;;;;;4.45;3.22;;;;;;;;;;4952049;28;20390;-57
2023/04/29 09:06:58;;;;;;;5.33;3.60;;;;;;;;;;4966535;28;20385;-56
2023/04/29 09:09:23;;;;;;;6.07;3.30;;;;;;;;;;4947372;28;20613;-55
2023/04/29 09:11:49;;;;;;;5.03;3.45;;;;;;;;;;4951231;28;20038;-55
2023/04/29 09:14:15;;;;;;;4.95;3.70;;;;;;;;;;4952111;28;20038;-57
2023/04/29 09:16:40;;;;;;;7.15;3.40;;;;;;;;;;4950266;28;20039;-56
2023/04/29 09:19:06;;;;;;;6.22;3.15;;;;;;;;;;4952092;28;20030;-59
2023/04/29 09:21:31;;;;;;;4.30;2.90;;;;;;;;;;4965116;28;20469;-53
2023/04/29 09:23:58;;;;;;;4.13;2.72;;;;;;;;;;4952507;28;20126;-57
2023/04/29 09:26:23;;;;;;;3.92;3.20;;;;;;;;;;4951990;28;20039;-56
2023/04/29 09:29:12;;;;;;;5.47;3.15;;;;;;;;;;4953467;28;20034;-57
2023/04/29 09:31:40;;;;;;;3.80;3.05;;;;;;;;;;4951885;28;20035;-58
2023/04/29 09:34:06;;;;;;;4.50;3.08;;;;;;;;;;4955008;28;20544;-58
2023/04/29 09:36:40;;;;;;;5.22;3.10;;;;;;;;;;4956761;28;20035;-58
2023/04/29 09:39:10;;;;;;;4.72;3.08;;;;;;;;;;4953885;28;20483;-56
2023/04/29 09:41:37;;;;;;;5.80;3.20;;;;;;;;;;4960035;28;20046;-53
2023/04/29 09:44:06;;;;;;;3.80;3.00;;;;;;;;;;4956395;28;20049;-59
2023/04/29 09:46:32;;;;;;;4.85;3.28;;;;;;;;;;4957167;28;20034;-57
2023/04/29 09:48:57;;;;;;;4.70;3.30;;;;;;;;;;4953331;28;20062;-56
2023/04/29 09:51:23;;;;;;;6.43;3.40;;;;;;;;;;4963143;28;20035;-56
2023/04/29 09:53:49;;;;;;;5.28;3.33;;;;;;;;;;4953691;28;20035;-57
2023/04/29 09:56:14;;;;;;;5.70;3.53;;;;;;;;;;4955885;28;20034;-56
2023/04/29 09:58:40;;;;;;;4.97;3.33;;;;;;;;;;4959075;28;20050;-58
2023/04/29 10:01:05;;;;;;;6.45;3.72;;;;;;;;;;4951736;28;20402;-57
2023/04/29 10:03:33;;;;;;;4.88;3.60;;;;;;;;;;4956569;28;20449;-55
2023/04/29 10:05:59;;;;;;;4.95;3.20;;;;;;;;;;4958957;28;20023;-59
2023/04/29 10:08:25;;;;;;;5.35;3.47;;;;;;;;;;4954049;28;20043;-56
2023/04/29 10:10:56;;;;;;;4.82;3.42;;;;;;;;;;4955707;28;20042;-56
2023/04/29 10:13:23;;;;;;;5.78;3.53;;;;;;;;;;4949886;28;20034;-59
2023/04/29 10:15:49;;;;;;;;;;;;;;;;;;4956781;28;20758;-56
2023/04/29 10:18:22;;;;;;;5.90;3.50;;;;;;;;;;4954233;28;19913;-58
2023/04/29 10:20:49;;;;;;;5.35;3.35;;;;;;;;;;4953739;28;20187;-54
2023/04/29 10:23:15;;;;;;;7.28;3.75;;;;;;;;;;4954755;28;20023;-53
2023/04/29 10:25:43;;;;;;;5.32;3.60;;;;;;;;;;4950887;28;20440;-57
2023/04/29 10:28:13;;;;;;;7.40;3.38;;;;;;;;;;4952247;28;20073;-55
2023/04/29 10:30:41;;;;;;;5.55;3.30;;;;;;;;;;4947686;28;20039;-57
2023/04/29 10:33:08;;;;;;;6.32;4.03;;;;;;;;;;4952927;28;20026;-58
2023/04/29 10:35:33;;;;;;;5.78;3.50;;;;;;;;;;4950970;28;20039;-55
2023/04/29 10:38:00;;;;;;;6.70;4.20;;;;;;;;;;4951843;28;20039;-54
2023/04/29 10:40:25;;;;;;;5.82;3.63;;;;;;;;;;4953745;28;20118;-57
2023/04/29 10:42:51;;;;;;;6.30;4.10;;;;;;;;;;4953269;28;20110;-57
2023/04/29 10:45:26;;;;;;;7.60;4.07;;;;;;;;;;4948090;28;20047;-57
2023/04/29 10:48:00;;;;;;;5.78;3.88;;;;;;;;;;4953777;28;20688;-55
2023/04/29 10:50:27;;;;;;;5.95;3.72;;;;;;;;;;4953023;28;20027;-57
2023/04/29 10:52:53;;;;;;;4.80;3.78;;;;;;;;;;4954485;28;20492;-55
2023/04/29 10:55:19;;;;;;;5.40;3.67;;;;;;;;;;4952126;28;20047;-53
2023/04/29 10:57:44;;;;;;;5.22;4.13;;;;;;;;;;4944238;28;20039;-57
2023/04/29 11:00:20;;;;;;;6.68;4.28;;;;;;;;;;4949912;28;20567;-52
2023/04/29 11:02:46;;;;;;;7.53;4.30;;;;;;;;;;4952320;28;20078;-56
2023/04/29 11:05:11;;;;;;;6.63;3.50;;;;;;;;;;4960809;28;20047;-55
2023/04/29 11:07:37;;;;;;;4.65;3.60;;;;;;;;;;4948664;28;20634;-57
2023/04/29 11:10:02;;;;;;;5.95;3.60;;;;;;;;;;4952415;28;20490;-58
2023/04/29 11:12:28;;;;;;;5.88;3.67;;;;;;;;;;4952226;28;20039;-55
2023/04/29 11:15:00;;;;;;;5.38;3.50;;;;;;;;;;4952158;28;20035;-57
2023/04/29 11:17:26;;;;;;;5.80;3.47;;;;;;;;;;4961480;28;20028;-55
2023/04/29 11:19:51;;;;;;;4.78;3.40;;;;;;;;;;4933682;28;20492;-57
2023/04/29 11:22:17;;;;;;;5.63;3.47;;;;;;;;;;4953443;28;20377;-54
2023/04/29 11:24:52;;;;;;;6.65;3.40;;;;;;;;;;4951768;28;20046;-59
2023/04/29 11:27:19;;;;;;;6.30;3.58;;;;;;;;;;4951365;28;20062;-58
2023/04/29 11:29:45;;;;;;;5.03;3.70;;;;;;;;;;4954813;28;20059;-58
2023/04/29 11:32:10;;;;;;;6.40;4.07;;;;;;;;;;4950454;28;20031;-56
2023/04/29 11:34:35;;;;;;;5.90;4.20;;;;;;;;;;4955700;28;20277;-54
2023/04/29 11:37:01;;;;;;;5.18;3.78;;;;;;;;;;4955063;28;20035;-51
2023/04/29 11:39:26;;;;;;;5.60;3.67;;;;;;;;;;4954040;28;20038;-55
2023/04/29 11:42:02;;;;;;;5.60;4.00;;;;;;;;;;4962249;28;20066;-53
2023/04/29 11:44:27;;;;;;;7.00;4.40;;;;;;;;;;4946882;28;20374;-53
2023/04/29 11:46:53;;;;;;;8.57;4.55;;;;;;;;;;4945169;28;20031;-55
2023/04/29 11:49:19;;;;;;;7.60;5.43;;;;;;;;;;4949727;28;20138;-57
2023/04/29 11:51:44;;;;;;;6.90;5.10;;;;;;;;;;4949946;28;20408;-57
2023/04/29 11:54:10;;;;;;;7.95;4.60;;;;;;;;;;4949251;28;20047;-60
2023/04/29 11:56:36;;;;;;;6.85;4.60;;;;;;;;;;4953946;28;20789;-56
2023/04/29 11:59:06;;;;;;;6.18;4.45;;;;;;;;;;4953556;28;20126;-61
2023/04/29 12:01:31;;;;;;;7.72;4.47;;;;;;;;;;4945110;28;20058;-55
2023/04/29 12:04:01;;;;;;;6.97;4.53;;;;;;;;;;4947351;28;20602;-56
2023/04/29 12:06:28;;;;;;;6.07;4.40;;;;;;;;;;4949550;28;20057;-60
2023/04/29 12:08:54;;;;;;;8.98;4.20;;;;;;;;;;4948270;28;20969;-56
2023/04/29 12:11:19;;;;;;;8.05;4.78;;;;;;;;;;4949114;28;20106;-57
2023/04/29 12:13:45;;;;;;;6.40;4.50;;;;;;;;;;4952086;28;20027;-59
2023/04/29 12:16:11;;;;;;;6.72;4.25;;;;;;;;;;4937219;28;20043;-55
2023/04/29 12:18:37;;;;;;;6.30;4.82;;;;;;;;;;4936268;28;20114;-61
2023/04/29 12:21:03;;;;;;;7.65;4.70;;;;;;;;;;4943725;28;20054;-55
2023/04/29 12:23:28;;;;;;;5.57;4.18;;;;;;;;;;4939544;28;20066;-58
2023/04/29 12:25:55;;;;;;;6.30;4.07;;;;;;;;;;4937201;28;20109;-56
2023/04/29 12:28:20;;;;;;;6.82;4.47;;;;;;;;;;4940612;28;20471;-58
2023/04/29 12:30:46;;;;;;;6.28;4.53;;;;;;;;;;4938800;28;20035;-57
2023/04/29 12:33:17;;;;;;;9.80;4.43;;;;;;;;;;4949006;28;20026;-56
2023/04/29 12:35:42;;;;;;;6.80;4.82;;;;;;;;;;4937942;28;20090;-56
2023/04/29 12:38:08;;;;;;;7.95;4.80;;;;;;;;;;4946169;28;20565;-56
2023/04/29 12:40:33;;;;;;;6.68;4.38;;;;;;;;;;4941943;28;20046;-57
2023/04/29 12:43:05;;;;;;;7.32;4.53;;;;;;;;;;4941675;28;20035;-55
2023/04/29 12:45:31;;;;;;;9.20;5.53;;;;;;;;;;4951519;28;20071;-57
2023/04/29 12:47:57;;;;;;;9.30;5.40;;;;;;;;;;4944503;28;20108;-58
2023/04/29 12:50:30;;;;;;;8.00;5.78;;;;;;;;;;4949579;28;20492;-55
2023/04/29 12:52:55;;;;;;;7.32;5.22;;;;;;;;;;4941638;28;20070;-55
2023/04/29 12:55:20;;;;;;;7.90;6.00;;;;;;;;;;4944636;28;20440;-57
2023/04/29 12:57:46;;;;;;;10.20;5.68;;;;;;;;;;4951516;28;20110;-59
2023/04/29 13:00:12;;;;;;;8.05;5.97;;;;;;;;;;4943285;28;20085;-56
2023/04/29 13:02:37;;;;;;;6.47;5.45;;;;;;;;;;4946734;28;20035;-57
2023/04/29 13:05:03;;;;;;;10.02;5.90;;;;;;;;;;4947026;28;20134;-58
2023/04/29 13:07:28;;;;;;;7.55;5.63;;;;;;;;;;4947835;28;20106;-56
2023/04/29 13:09:53;;;;;;;8.65;6.00;;;;;;;;;;4956202;28;20061;-56
2023/04/29 13:12:19;;;;;;;9.40;5.47;;;;;;;;;;4950491;28;20037;-55
2023/04/29 13:14:44;;;;;;;8.95;5.80;;;;;;;;;;4957189;28;20093;-57
2023/04/29 13:17:09;;;;;;;7.28;6.22;;;;;;;;;;4952120;28;20058;-57
2023/04/29 13:19:35;;;;;;;8.45;6.43;;;;;;;;;;4949608;28;20034;-56
2023/04/29 13:22:00;;;;;;;8.88;6.45;;;;;;;;;;4955220;28;20054;-57
2023/04/29 13:24:26;;;;;;;10.65;6.90;;;;;;;;;;4965373;28;20035;-57
2023/04/29 13:26:51;;;;;;;10.23;6.00;;;;;;;;;;4954507;28;20035;-55
2023/04/29 13:29:17;;;;;;;7.82;5.20;;;;;;;;;;4951246;28;20035;-55
2023/04/29 13:31:42;;;;;;;10.27;5.78;;;;;;;;;;4948721;28;20041;-57
2023/04/29 13:34:08;;;;;;;9.77;5.93;;;;;;;;;;4955123;28;20126;-54
2023/04/29 13:36:33;;;;;;;6.53;4.43;;;;;;;;;;4948843;28;20689;-55
2023/04/29 13:38:58;;;;;;;7.05;5.28;;;;;;;;;;4969717;28;20098;-54
2023/04/29 13:41:25;;;;;;;8.73;5.50;;;;;;;;;;4949616;28;20110;-57
2023/04/29 13:43:50;;;;;;;6.53;4.95;;;;;;;;;;4947546;28;20725;-54
2023/04/29 13:46:15;;;;;;;8.82;5.97;;;;;;;;;;4951982;28;20532;-55
2023/04/29 13:48:41;;;;;;;8.55;6.05;;;;;;;;;;4949415;28;20038;-57
2023/04/29 13:51:06;;;;;;;7.63;5.63;;;;;;;;;;4955446;28;20027;-56
2023/04/29 13:53:31;;;;;;;9.70;6.50;;;;;;;;;;4949518;28;20452;-57
2023/04/29 13:55:57;;;;;;;9.25;6.20;;;;;;;;;;4948328;28;20043;-54
2023/04/29 13:58:23;;;;;;;10.07;6.68;;;;;;;;;;4954005;28;20409;-54
2023/04/29 14:00:48;;;;;;;12.07;6.35;;;;;;;;;;4945944;28;20031;-56
2023/04/29 14:03:13;;;;;;;9.85;6.30;;;;;;;;;;4951935;28;20146;-55
2023/04/29 14:05:40;;;;;;;10.60;6.97;;;;;;;;;;4948642;28;20548;-56
2023/04/29 14:10:46;;;;;;;9.88;6.18;;;;;;;;;;5174147;23;20048;-55
2023/04/29 14:13:12;;;;;;;11.30;6.93;;;;;;;;;;4919430;29;20028;-56
2023/04/29 14:15:37;;;;;;;13.38;6.55;;;;;;;;;;4909538;29;20122;-52
2023/04/29 14:18:02;;;;;;;12.13;6.95;;;;;;;;;;4909140;29;20170;-54
2023/04/29 14:20:28;;;;;;;12.85;7.05;;;;;;;;;;4915821;29;20024;-55
2023/04/29 14:22:53;;;;;;;9.52;6.50;;;;;;;;;;4917884;29;20532;-55
2023/04/29 14:25:18;;;;;;;10.38;7.43;;;;;;;;;;4915924;29;20660;-55
2023/04/29 14:27:44;;;;;;;9.57;6.95;;;;;;;;;;4913392;29;20484;-57
2023/04/29 14:30:09;;;;;;;12.00;7.07;;;;;;;;;;4919840;29;20076;-57
2023/04/29 14:32:35;;;;;;;10.43;7.35;;;;;;;;;;4905513;29;20338;-55
2023/04/29 14:35:00;;;;;;;10.45;7.05;;;;;;;;;;4921052;29;20486;-56
2023/04/29 14:37:25;;;;;;;12.30;7.40;;;;;;;;;;4914156;29;20544;-55
2023/04/29 14:39:51;;;;;;;12.23;7.88;;;;;;;;;;4902810;29;20569;-55
2023/04/29 14:42:17;;;;;;;11.45;6.85;;;;;;;;;;4921613;29;20049;-58
2023/04/29 14:44:42;;;;;;;12.73;7.70;;;;;;;;;;4914420;29;20173;-57